sensor_id;sensor_type;location;lat;lon;timestamp;P1;durP1;ratioP1;P2;durP2;ratioP2
6926;SDS011;3503;50.07605000;8.86719200;2023-03-05T00:13:16;16.90;;;7.83;;
6926;SDS011;3503;50.07605000;8.86719200;2023-03-05T00:28:19;22.33;;;8.70;;
6926;SDS011;3503;50.07605000;8.86719200;2023-03-05T00:43:22;20.80;;;7.63;;
6926;SDS011;3503;50.07605000;8.86719200;2023-03-05T00:58:27;16.53;;;6.80;;
6926;SDS011;3503;50.07605000;8.86719200;2023-03-05T01:13:30;14.40;;;6.87;;
6926;SDS011;3503;50.07605000;8.86719200;2023-03-05T01:28:34;16.80;;;5.13;;
6926;SDS011;3503;50.07605000;8.86719200;2023-03-05T01:43:38;8.40;;;3.70;;
6926;SDS011;3503;50.07605000;8.86719200;2023-03-05T01:58:41;8.87;;;2.93;;
6926;SDS011;3503;50.07605000;8.86719200;2023-03-05T02:13:45;7.73;;;2.07;;
6926;SDS011;3503;50.07605000;8.86719200;2023-03-05T02:28:48;5.43;;;2.43;;
6926;SDS011;3503;50.07605000;8.86719200;2023-03-05T02:43:53;10.20;;;2.30;;
6926;SDS011;3503;50.07605000;8.86719200;2023-03-05T02:58:56;7.60;;;2.40;;
6926;SDS011;3503;50.07605000;8.86719200;2023-03-05T03:13:59;19.20;;;2.60;;
6926;SDS011;3503;50.07605000;8.86719200;2023-03-05T03:29:02;8.80;;;2.80;;
6926;SDS011;3503;50.07605000;8.86719200;2023-03-05T03:44:05;6.03;;;1.83;;
6926;SDS011;3503;50.07605000;8.86719200;2023-03-05T03:59:09;11.73;;;2.40;;
6926;SDS011;3503;50.07605000;8.86719200;2023-03-05T04:14:12;4.63;;;2.30;;
6926;SDS011;3503;50.07605000;8.86719200;2023-03-05T04:29:15;15.10;;;2.63;;
6926;SDS011;3503;50.07605000;8.86719200;2023-03-05T04:44:18;7.50;;;2.30;;
6926;SDS011;3503;50.07605000;8.86719200;2023-03-05T04:59:23;5.80;;;1.70;;
6926;SDS011;3503;50.07605000;8.86719200;2023-03-05T05:14:26;4.40;;;0.93;;
6926;SDS011;3503;50.07605000;8.86719200;2023-03-05T05:29:29;10.00;;;1.40;;
6926;SDS011;3503;50.07605000;8.86719200;2023-03-05T05:44:32;6.27;;;1.17;;
6926;SDS011;3503;50.07605000;8.86719200;2023-03-05T05:59:35;3.70;;;0.97;;
6926;SDS011;3503;50.07605000;8.86719200;2023-03-05T06:14:39;5.30;;;1.20;;
6926;SDS011;3503;50.07605000;8.86719200;2023-03-05T06:29:42;7.00;;;1.33;;
6926;SDS011;3503;50.07605000;8.86719200;2023-03-05T06:44:45;4.60;;;1.30;;
6926;SDS011;3503;50.07605000;8.86719200;2023-03-05T06:59:48;4.33;;;1.10;;
6926;SDS011;3503;50.07605000;8.86719200;2023-03-05T07:14:51;7.87;;;2.70;;
6926;SDS011;3503;50.07605000;8.86719200;2023-03-05T07:29:54;10.43;;;2.40;;
6926;SDS011;3503;50.07605000;8.86719200;2023-03-05T07:44:57;4.80;;;1.80;;
6926;SDS011;3503;50.07605000;8.86719200;2023-03-05T08:00:00;4.60;;;2.20;;
6926;SDS011;3503;50.07605000;8.86719200;2023-03-05T08:15:03;7.87;;;2.97;;
6926;SDS011;3503;50.07605000;8.86719200;2023-03-05T08:30:09;15.80;;;4.53;;
6926;SDS011;3503;50.07605000;8.86719200;2023-03-05T08:45:14;10.67;;;4.50;;
6926;SDS011;3503;50.07605000;8.86719200;2023-03-05T09:00:17;10.77;;;5.07;;
6926;SDS011;3503;50.07605000;8.86719200;2023-03-05T09:15:21;15.57;;;6.50;;
6926;SDS011;3503;50.07605000;8.86719200;2023-03-05T09:30:24;12.27;;;5.10;;
6926;SDS011;3503;50.07605000;8.86719200;2023-03-05T09:45:27;12.00;;;5.40;;
6926;SDS011;3503;50.07605000;8.86719200;2023-03-05T10:00:35;10.03;;;4.33;;
6926;SDS011;3503;50.07605000;8.86719200;2023-03-05T10:15:42;13.60;;;3.73;;
6926;SDS011;3503;50.07605000;8.86719200;2023-03-05T10:30:58;13.53;;;4.23;;
6926;SDS011;3503;50.07605000;8.86719200;2023-03-05T10:46:11;11.77;;;5.00;;
6926;SDS011;3503;50.07605000;8.86719200;2023-03-05T11:01:21;17.73;;;7.87;;
6926;SDS011;3503;50.07605000;8.86719200;2023-03-05T11:16:25;10.37;;;4.10;;
6926;SDS011;3503;50.07605000;8.86719200;2023-03-05T11:31:30;11.73;;;5.63;;
6926;SDS011;3503;50.07605000;8.86719200;2023-03-05T11:46:36;17.63;;;8.90;;
6926;SDS011;3503;50.07605000;8.86719200;2023-03-05T12:01:42;10.73;;;5.80;;
6926;SDS011;3503;50.07605000;8.86719200;2023-03-05T12:16:47;9.40;;;4.27;;
6926;SDS011;3503;50.07605000;8.86719200;2023-03-05T12:31:53;13.63;;;5.53;;
6926;SDS011;3503;50.07605000;8.86719200;2023-03-05T12:47:15;11.27;;;4.67;;
6926;SDS011;3503;50.07605000;8.86719200;2023-03-05T13:02:25;17.20;;;5.03;;
6926;SDS011;3503;50.07605000;8.86719200;2023-03-05T13:17:30;10.50;;;3.70;;
6926;SDS011;3503;50.07605000;8.86719200;2023-03-05T13:32:38;5.97;;;2.93;;
6926;SDS011;3503;50.07605000;8.86719200;2023-03-05T13:47:41;9.43;;;3.37;;
6926;SDS011;3503;50.07605000;8.86719200;2023-03-05T14:02:54;8.33;;;2.10;;
6926;SDS011;3503;50.07605000;8.86719200;2023-03-05T14:18:12;6.83;;;2.50;;
6926;SDS011;3503;50.07605000;8.86719200;2023-03-05T14:33:20;5.90;;;2.53;;
6926;SDS011;3503;50.07605000;8.86719200;2023-03-05T14:48:26;5.63;;;2.00;;
6926;SDS011;3503;50.07605000;8.86719200;2023-03-05T15:03:29;6.77;;;2.00;;
6926;SDS011;3503;50.07605000;8.86719200;2023-03-05T15:18:34;5.63;;;1.83;;
6926;SDS011;3503;50.07605000;8.86719200;2023-03-05T15:33:37;6.40;;;2.80;;
6926;SDS011;3503;50.07605000;8.86719200;2023-03-05T15:48:42;4.67;;;1.60;;
6926;SDS011;3503;50.07605000;8.86719200;2023-03-05T16:03:50;3.77;;;1.73;;
6926;SDS011;3503;50.07605000;8.86719200;2023-03-05T16:18:53;8.60;;;3.00;;
6926;SDS011;3503;50.07605000;8.86719200;2023-03-05T16:33:57;8.10;;;2.93;;
6926;SDS011;3503;50.07605000;8.86719200;2023-03-05T16:49:00;5.70;;;3.00;;
6926;SDS011;3503;50.07605000;8.86719200;2023-03-05T17:04:04;8.03;;;3.13;;
6926;SDS011;3503;50.07605000;8.86719200;2023-03-05T17:19:07;7.17;;;3.03;;
6926;SDS011;3503;50.07605000;8.86719200;2023-03-05T17:34:10;8.30;;;3.53;;
6926;SDS011;3503;50.07605000;8.86719200;2023-03-05T17:49:13;8.13;;;3.57;;
6926;SDS011;3503;50.07605000;8.86719200;2023-03-05T18:04:16;12.07;;;3.87;;
6926;SDS011;3503;50.07605000;8.86719200;2023-03-05T18:19:19;10.87;;;4.23;;
6926;SDS011;3503;50.07605000;8.86719200;2023-03-05T18:34:23;10.93;;;5.53;;
6926;SDS011;3503;50.07605000;8.86719200;2023-03-05T18:49:26;12.20;;;5.43;;
6926;SDS011;3503;50.07605000;8.86719200;2023-03-05T19:04:30;15.90;;;6.17;;
6926;SDS011;3503;50.07605000;8.86719200;2023-03-05T19:19:32;12.47;;;4.37;;
6926;SDS011;3503;50.07605000;8.86719200;2023-03-05T19:34:35;15.03;;;5.33;;
6926;SDS011;3503;50.07605000;8.86719200;2023-03-05T19:49:39;12.10;;;5.07;;
6926;SDS011;3503;50.07605000;8.86719200;2023-03-05T20:04:42;13.40;;;4.90;;
6926;SDS011;3503;50.07605000;8.86719200;2023-03-05T20:19:45;11.67;;;5.43;;
6926;SDS011;3503;50.07605000;8.86719200;2023-03-05T20:34:50;10.90;;;5.33;;
6926;SDS011;3503;50.07605000;8.86719200;2023-03-05T20:49:54;10.27;;;4.27;;
6926;SDS011;3503;50.07605000;8.86719200;2023-03-05T21:04:57;14.27;;;5.57;;
6926;SDS011;3503;50.07605000;8.86719200;2023-03-05T21:20:00;10.83;;;4.77;;
6926;SDS011;3503;50.07605000;8.86719200;2023-03-05T21:35:05;11.20;;;5.10;;
6926;SDS011;3503;50.07605000;8.86719200;2023-03-05T21:50:09;11.13;;;4.60;;
6926;SDS011;3503;50.07605000;8.86719200;2023-03-05T22:05:13;19.53;;;5.30;;
6926;SDS011;3503;50.07605000;8.86719200;2023-03-05T22:20:17;11.60;;;5.00;;
6926;SDS011;3503;50.07605000;8.86719200;2023-03-05T22:35:20;12.07;;;5.33;;
6926;SDS011;3503;50.07605000;8.86719200;2023-03-05T22:50:23;13.57;;;6.20;;
6926;SDS011;3503;50.07605000;8.86719200;2023-03-05T23:05:26;10.07;;;5.47;;
6926;SDS011;3503;50.07605000;8.86719200;2023-03-05T23:20:30;16.73;;;5.93;;
6926;SDS011;3503;50.07605000;8.86719200;2023-03-05T23:35:35;7.53;;;3.83;;
6926;SDS011;3503;50.07605000;8.86719200;2023-03-05T23:50:40;8.43;;;4.17;;
